Capitan FAP Pedro Canga Rodriguez Airport
SPME : now visible

Airfield :











YOU CAN JOIN US ON...

 
LOGIN :

Register | Disclaimer

   EN    FR    IT 

 









Legend :    VFR   Marginal VFR   IFR   Intensive IFR   Very Intensive IFR
Visi :
Ceiling :
>= 8 km
>= 3000ft
5 to 8 km
1000 to 3000 ft
1500m to 5 km
500 to 1000 ft
800 to 1500m
200 to 500 ft
< 800m
< 200 ft
Symbols :   Thunderstorms  Fog  Heavy snow  Heavy precipitations  Wind > 20 kt






- Airport Elevation : 115 ft
- IATA code : TBP


SPME - Capitan FAP Pedro Canga Rodriguez

METAR N/A
TAF TAF SPME
Valid from the 02 at 18:00 until the 03 at 18:00 UTC


021700Z 0218/0318 35012KT 9999 BKN020 TX28/0219Z TN20/0311Z
TEMPO 0219/0222 SCT025
FM031200 VRB02KT 8000 OVC010
BECMG 0315/0317 33010KT 9999 SCT020
SPIM FIR / South America



MET'MAP, your aeronautical weather chart ! - Copyright ORBIFLY December 2007 - Disclaimer

ORBIFLY MET'MAP TEAM :

Programming & Development : Alexandra Zaïnal
Concept & original design : Baudouin d'Aumeries
Assistance for programming : Marc-Olivier Méhu
Technical & hardware support : Manuel Goepfert

Contact : metmap@orbifly.com




SOURCES & CREDITS :

   NOAA       Earth
Advisory